sensor_id;sensor_type;location;lat;lon;timestamp;temperature;humidity
16118;DHT22;8163;50.118;5.342;2022-12-18T00:00:29;-1.60;67.40
16118;DHT22;8163;50.118;5.342;2022-12-18T00:02:58;-1.50;67.50
16118;DHT22;8163;50.118;5.342;2022-12-18T00:05:25;-1.50;67.60
16118;DHT22;8163;50.118;5.342;2022-12-18T00:07:52;-1.50;67.60
16118;DHT22;8163;50.118;5.342;2022-12-18T00:10:19;-1.50;67.80
16118;DHT22;8163;50.118;5.342;2022-12-18T00:12:46;-1.50;67.70
16118;DHT22;8163;50.118;5.342;2022-12-18T00:15:13;-1.50;68.40
16118;DHT22;8163;50.118;5.342;2022-12-18T00:17:40;-1.50;67.60
16118;DHT22;8163;50.118;5.342;2022-12-18T00:20:09;-1.50;67.80
16118;DHT22;8163;50.118;5.342;2022-12-18T00:22:36;-1.50;67.90
16118;DHT22;8163;50.118;5.342;2022-12-18T00:25:04;-1.40;68.10
16118;DHT22;8163;50.118;5.342;2022-12-18T00:27:31;-1.40;68.20
16118;DHT22;8163;50.118;5.342;2022-12-18T00:29:58;-1.30;68.40
16118;DHT22;8163;50.118;5.342;2022-12-18T00:32:25;-1.20;68.50
16118;DHT22;8163;50.118;5.342;2022-12-18T00:34:55;-1.20;68.30
16118;DHT22;8163;50.118;5.342;2022-12-18T00:37:23;-1.10;68.30
16118;DHT22;8163;50.118;5.342;2022-12-18T00:39:50;-1.10;68.10
16118;DHT22;8163;50.118;5.342;2022-12-18T00:42:17;-1.10;68.00
16118;DHT22;8163;50.118;5.342;2022-12-18T00:45:02;-1.10;67.90
16118;DHT22;8163;50.118;5.342;2022-12-18T00:47:29;-1.10;67.90
16118;DHT22;8163;50.118;5.342;2022-12-18T00:49:56;-1.10;67.80
16118;DHT22;8163;50.118;5.342;2022-12-18T00:52:24;-1.20;67.70
16118;DHT22;8163;50.118;5.342;2022-12-18T00:54:51;-1.20;67.70
16118;DHT22;8163;50.118;5.342;2022-12-18T00:57:19;-1.20;67.80
16118;DHT22;8163;50.118;5.342;2022-12-18T00:59:46;-1.20;67.70
16118;DHT22;8163;50.118;5.342;2022-12-18T01:02:13;-1.20;67.70
16118;DHT22;8163;50.118;5.342;2022-12-18T01:04:40;-1.20;67.50
16118;DHT22;8163;50.118;5.342;2022-12-18T01:07:10;-1.20;67.50
16118;DHT22;8163;50.118;5.342;2022-12-18T01:09:38;-1.10;67.60
16118;DHT22;8163;50.118;5.342;2022-12-18T01:12:06;-1.20;67.20
16118;DHT22;8163;50.118;5.342;2022-12-18T01:14:33;-1.20;67.20
16118;DHT22;8163;50.118;5.342;2022-12-18T01:17:00;-1.30;67.20
16118;DHT22;8163;50.118;5.342;2022-12-18T01:19:29;-1.30;67.20
16118;DHT22;8163;50.118;5.342;2022-12-18T01:21:56;-1.30;67.20
16118;DHT22;8163;50.118;5.342;2022-12-18T01:24:23;-1.40;67.10
16118;DHT22;8163;50.118;5.342;2022-12-18T01:26:52;-1.50;67.10
16118;DHT22;8163;50.118;5.342;2022-12-18T01:29:19;-1.40;67.60
16118;DHT22;8163;50.118;5.342;2022-12-18T01:31:46;-1.40;67.60
16118;DHT22;8163;50.118;5.342;2022-12-18T01:34:13;-1.40;67.60
16118;DHT22;8163;50.118;5.342;2022-12-18T01:36:40;-1.40;67.60
16118;DHT22;8163;50.118;5.342;2022-12-18T01:39:10;-1.50;67.50
16118;DHT22;8163;50.118;5.342;2022-12-18T01:41:37;-1.50;67.50
16118;DHT22;8163;50.118;5.342;2022-12-18T01:44:53;-1.50;67.70
16118;DHT22;8163;50.118;5.342;2022-12-18T01:47:24;-1.50;67.80
16118;DHT22;8163;50.118;5.342;2022-12-18T01:49:53;-1.50;67.90
16118;DHT22;8163;50.118;5.342;2022-12-18T01:52:21;-1.50;67.90
16118;DHT22;8163;50.118;5.342;2022-12-18T01:54:51;-1.50;68.10
16118;DHT22;8163;50.118;5.342;2022-12-18T01:57:18;-1.50;68.10
16118;DHT22;8163;50.118;5.342;2022-12-18T01:59:49;-1.50;68.20
16118;DHT22;8163;50.118;5.342;2022-12-18T02:02:20;-1.60;68.10
16118;DHT22;8163;50.118;5.342;2022-12-18T02:04:47;-1.60;68.10
16118;DHT22;8163;50.118;5.342;2022-12-18T02:07:20;-1.60;68.20
16118;DHT22;8163;50.118;5.342;2022-12-18T02:09:55;-1.60;68.20
16118;DHT22;8163;50.118;5.342;2022-12-18T02:12:25;-1.60;68.40
16118;DHT22;8163;50.118;5.342;2022-12-18T02:15:00;-1.60;68.60
16118;DHT22;8163;50.118;5.342;2022-12-18T02:17:36;-1.60;68.70
16118;DHT22;8163;50.118;5.342;2022-12-18T02:20:09;-1.60;68.70
16118;DHT22;8163;50.118;5.342;2022-12-18T02:22:47;-1.50;68.80
16118;DHT22;8163;50.118;5.342;2022-12-18T02:25:30;-1.60;68.50
16118;DHT22;8163;50.118;5.342;2022-12-18T02:28:04;-1.60;68.60
16118;DHT22;8163;50.118;5.342;2022-12-18T02:30:34;-1.60;68.70
16118;DHT22;8163;50.118;5.342;2022-12-18T02:33:03;-1.60;68.90
16118;DHT22;8163;50.118;5.342;2022-12-18T02:35:32;-1.60;68.90
16118;DHT22;8163;50.118;5.342;2022-12-18T02:38:00;-1.70;69.00
16118;DHT22;8163;50.118;5.342;2022-12-18T02:40:28;-1.70;69.10
16118;DHT22;8163;50.118;5.342;2022-12-18T02:43:03;-1.60;69.20
16118;DHT22;8163;50.118;5.342;2022-12-18T02:45:33;-1.70;70.00
16118;DHT22;8163;50.118;5.342;2022-12-18T02:48:00;-1.70;69.40
16118;DHT22;8163;50.118;5.342;2022-12-18T02:50:34;-1.60;69.60
16118;DHT22;8163;50.118;5.342;2022-12-18T02:53:09;-1.60;69.60
16118;DHT22;8163;50.118;5.342;2022-12-18T02:55:48;-1.60;69.60
16118;DHT22;8163;50.118;5.342;2022-12-18T02:58:20;-1.60;69.60
16118;DHT22;8163;50.118;5.342;2022-12-18T03:00:52;-1.60;69.60
16118;DHT22;8163;50.118;5.342;2022-12-18T03:03:25;-1.60;69.60
16118;DHT22;8163;50.118;5.342;2022-12-18T03:05:57;-1.50;69.70
16118;DHT22;8163;50.118;5.342;2022-12-18T03:08:29;-1.60;69.70
16118;DHT22;8163;50.118;5.342;2022-12-18T03:11:01;-1.60;69.70
16118;DHT22;8163;50.118;5.342;2022-12-18T03:13:32;-1.60;69.90
16118;DHT22;8163;50.118;5.342;2022-12-18T03:16:01;-1.60;70.00
16118;DHT22;8163;50.118;5.342;2022-12-18T03:18:33;-1.70;69.90
16118;DHT22;8163;50.118;5.342;2022-12-18T03:21:05;-1.70;70.00
16118;DHT22;8163;50.118;5.342;2022-12-18T03:23:35;-1.70;70.10
16118;DHT22;8163;50.118;5.342;2022-12-18T03:26:07;-1.80;70.20
16118;DHT22;8163;50.118;5.342;2022-12-18T03:28:42;-1.80;70.50
16118;DHT22;8163;50.118;5.342;2022-12-18T03:31:12;-1.80;70.50
16118;DHT22;8163;50.118;5.342;2022-12-18T03:33:43;-1.70;70.70
16118;DHT22;8163;50.118;5.342;2022-12-18T03:36:13;-1.70;70.60
16118;DHT22;8163;50.118;5.342;2022-12-18T03:38:40;-1.70;70.50
16118;DHT22;8163;50.118;5.342;2022-12-18T03:41:13;-1.70;70.50
16118;DHT22;8163;50.118;5.342;2022-12-18T03:43:49;-1.70;70.40
16118;DHT22;8163;50.118;5.342;2022-12-18T03:46:25;-1.70;70.20
16118;DHT22;8163;50.118;5.342;2022-12-18T03:48:59;-1.70;70.20
16118;DHT22;8163;50.118;5.342;2022-12-18T03:51:33;-1.70;70.10
16118;DHT22;8163;50.118;5.342;2022-12-18T03:54:04;-1.80;70.00
16118;DHT22;8163;50.118;5.342;2022-12-18T03:56:36;-1.80;69.80
16118;DHT22;8163;50.118;5.342;2022-12-18T03:59:07;-1.90;69.80
16118;DHT22;8163;50.118;5.342;2022-12-18T04:01:50;-1.90;69.80
16118;DHT22;8163;50.118;5.342;2022-12-18T04:04:19;-1.80;69.80
16118;DHT22;8163;50.118;5.342;2022-12-18T04:06:48;-1.90;69.80
16118;DHT22;8163;50.118;5.342;2022-12-18T04:09:16;-1.90;69.70
16118;DHT22;8163;50.118;5.342;2022-12-18T04:11:43;-1.90;69.70
16118;DHT22;8163;50.118;5.342;2022-12-18T04:14:11;-2.00;69.60
16118;DHT22;8163;50.118;5.342;2022-12-18T04:16:38;-2.00;69.60
16118;DHT22;8163;50.118;5.342;2022-12-18T04:19:05;-2.00;69.60
16118;DHT22;8163;50.118;5.342;2022-12-18T04:21:32;-2.10;69.40
16118;DHT22;8163;50.118;5.342;2022-12-18T04:24:00;-2.10;69.40
16118;DHT22;8163;50.118;5.342;2022-12-18T04:26:26;-2.10;69.50
16118;DHT22;8163;50.118;5.342;2022-12-18T04:28:53;-2.10;69.60
16118;DHT22;8163;50.118;5.342;2022-12-18T04:31:22;-2.10;69.70
16118;DHT22;8163;50.118;5.342;2022-12-18T04:33:49;-2.20;69.50
16118;DHT22;8163;50.118;5.342;2022-12-18T04:36:16;-2.20;69.80
16118;DHT22;8163;50.118;5.342;2022-12-18T04:38:43;-2.20;69.80
16118;DHT22;8163;50.118;5.342;2022-12-18T04:41:10;-2.20;70.10
16118;DHT22;8163;50.118;5.342;2022-12-18T04:43:37;-2.20;70.10
16118;DHT22;8163;50.118;5.342;2022-12-18T04:46:05;-2.30;70.10
16118;DHT22;8163;50.118;5.342;2022-12-18T04:48:33;-2.20;70.50
16118;DHT22;8163;50.118;5.342;2022-12-18T04:51:01;-2.20;70.60
16118;DHT22;8163;50.118;5.342;2022-12-18T04:53:28;-2.20;70.70
16118;DHT22;8163;50.118;5.342;2022-12-18T04:56:04;-2.20;71.20
16118;DHT22;8163;50.118;5.342;2022-12-18T04:58:31;-2.10;71.70
16118;DHT22;8163;50.118;5.342;2022-12-18T05:00:58;-2.10;71.70
16118;DHT22;8163;50.118;5.342;2022-12-18T05:03:25;-2.10;71.90
16118;DHT22;8163;50.118;5.342;2022-12-18T05:05:54;-2.10;72.00
16118;DHT22;8163;50.118;5.342;2022-12-18T05:08:23;-2.00;72.20
16118;DHT22;8163;50.118;5.342;2022-12-18T05:10:50;-2.00;72.20
16118;DHT22;8163;50.118;5.342;2022-12-18T05:13:24;-2.00;72.30
16118;DHT22;8163;50.118;5.342;2022-12-18T05:15:52;-2.00;72.30
16118;DHT22;8163;50.118;5.342;2022-12-18T05:18:19;-2.00;72.30
16118;DHT22;8163;50.118;5.342;2022-12-18T05:20:46;-1.90;72.40
16118;DHT22;8163;50.118;5.342;2022-12-18T05:23:14;-1.90;72.40
16118;DHT22;8163;50.118;5.342;2022-12-18T05:25:41;-1.90;72.30
16118;DHT22;8163;50.118;5.342;2022-12-18T05:28:08;-1.80;72.30
16118;DHT22;8163;50.118;5.342;2022-12-18T05:30:35;-1.70;72.10
16118;DHT22;8163;50.118;5.342;2022-12-18T05:33:02;-1.70;71.90
16118;DHT22;8163;50.118;5.342;2022-12-18T05:35:29;-1.60;72.10
16118;DHT22;8163;50.118;5.342;2022-12-18T05:37:56;-1.60;72.10
16118;DHT22;8163;50.118;5.342;2022-12-18T05:40:24;-1.60;71.90
16118;DHT22;8163;50.118;5.342;2022-12-18T05:42:51;-1.60;71.90
16118;DHT22;8163;50.118;5.342;2022-12-18T05:45:19;-1.60;71.90
16118;DHT22;8163;50.118;5.342;2022-12-18T05:47:46;-1.70;72.70
16118;DHT22;8163;50.118;5.342;2022-12-18T05:50:14;-1.70;71.90
16118;DHT22;8163;50.118;5.342;2022-12-18T05:52:41;-1.80;72.00
16118;DHT22;8163;50.118;5.342;2022-12-18T05:55:08;-1.80;72.40
16118;DHT22;8163;50.118;5.342;2022-12-18T05:57:37;-1.80;72.50
16118;DHT22;8163;50.118;5.342;2022-12-18T06:00:04;-1.80;72.50
16118;DHT22;8163;50.118;5.342;2022-12-18T06:02:32;-1.90;72.40
16118;DHT22;8163;50.118;5.342;2022-12-18T06:04:59;-1.90;72.50
16118;DHT22;8163;50.118;5.342;2022-12-18T06:07:26;-2.00;72.60
16118;DHT22;8163;50.118;5.342;2022-12-18T06:09:52;-2.00;72.70
16118;DHT22;8163;50.118;5.342;2022-12-18T06:12:19;-2.00;73.00
16118;DHT22;8163;50.118;5.342;2022-12-18T06:14:51;-2.00;73.20
16118;DHT22;8163;50.118;5.342;2022-12-18T06:17:18;-2.00;73.20
16118;DHT22;8163;50.118;5.342;2022-12-18T06:19:45;-2.00;73.20
16118;DHT22;8163;50.118;5.342;2022-12-18T06:22:12;-2.10;73.20
16118;DHT22;8163;50.118;5.342;2022-12-18T06:24:39;-2.10;73.20
16118;DHT22;8163;50.118;5.342;2022-12-18T06:27:06;-2.10;73.40
16118;DHT22;8163;50.118;5.342;2022-12-18T06:29:32;-2.20;73.20
16118;DHT22;8163;50.118;5.342;2022-12-18T06:32:01;-2.20;73.20
16118;DHT22;8163;50.118;5.342;2022-12-18T06:34:28;-2.20;73.20
16118;DHT22;8163;50.118;5.342;2022-12-18T06:36:55;-2.30;73.20
16118;DHT22;8163;50.118;5.342;2022-12-18T06:39:22;-2.30;73.00
16118;DHT22;8163;50.118;5.342;2022-12-18T06:41:49;-2.30;73.10
16118;DHT22;8163;50.118;5.342;2022-12-18T06:44:16;-2.30;73.30
16118;DHT22;8163;50.118;5.342;2022-12-18T06:46:43;-2.30;73.40
16118;DHT22;8163;50.118;5.342;2022-12-18T06:49:11;-2.40;73.40
16118;DHT22;8163;50.118;5.342;2022-12-18T06:51:39;-2.40;73.40
16118;DHT22;8163;50.118;5.342;2022-12-18T06:54:06;-2.40;73.50
16118;DHT22;8163;50.118;5.342;2022-12-18T06:56:36;-2.40;74.40
16118;DHT22;8163;50.118;5.342;2022-12-18T06:59:04;-2.30;74.10
16118;DHT22;8163;50.118;5.342;2022-12-18T07:01:31;-2.30;74.10
16118;DHT22;8163;50.118;5.342;2022-12-18T07:03:59;-2.30;74.10
16118;DHT22;8163;50.118;5.342;2022-12-18T07:06:29;-2.30;74.00
16118;DHT22;8163;50.118;5.342;2022-12-18T07:08:56;-2.30;74.00
16118;DHT22;8163;50.118;5.342;2022-12-18T07:11:24;-2.30;74.20
16118;DHT22;8163;50.118;5.342;2022-12-18T07:13:52;-2.30;74.10
16118;DHT22;8163;50.118;5.342;2022-12-18T07:16:20;-2.20;74.30
16118;DHT22;8163;50.118;5.342;2022-12-18T07:18:48;-2.20;74.10
16118;DHT22;8163;50.118;5.342;2022-12-18T07:21:20;-2.20;74.20
16118;DHT22;8163;50.118;5.342;2022-12-18T07:23:48;-2.20;74.20
16118;DHT22;8163;50.118;5.342;2022-12-18T07:26:22;-2.20;74.20
16118;DHT22;8163;50.118;5.342;2022-12-18T07:28:50;-2.20;74.20
16118;DHT22;8163;50.118;5.342;2022-12-18T07:31:20;-2.20;74.20
16118;DHT22;8163;50.118;5.342;2022-12-18T07:33:49;-2.20;74.30
16118;DHT22;8163;50.118;5.342;2022-12-18T07:36:16;-2.20;74.50
16118;DHT22;8163;50.118;5.342;2022-12-18T07:38:46;-2.20;74.50
16118;DHT22;8163;50.118;5.342;2022-12-18T07:41:14;-2.20;74.50
16118;DHT22;8163;50.118;5.342;2022-12-18T07:43:41;-2.10;74.60
16118;DHT22;8163;50.118;5.342;2022-12-18T07:46:10;-2.10;74.50
16118;DHT22;8163;50.118;5.342;2022-12-18T07:48:40;-2.10;74.40
16118;DHT22;8163;50.118;5.342;2022-12-18T07:51:07;-2.00;74.40
16118;DHT22;8163;50.118;5.342;2022-12-18T07:53:35;-2.00;74.30
16118;DHT22;8163;50.118;5.342;2022-12-18T07:56:04;-1.90;74.20
16118;DHT22;8163;50.118;5.342;2022-12-18T07:58:34;-1.90;74.10
16118;DHT22;8163;50.118;5.342;2022-12-18T08:01:04;-1.80;74.00
16118;DHT22;8163;50.118;5.342;2022-12-18T08:03:32;-1.80;73.90
16118;DHT22;8163;50.118;5.342;2022-12-18T08:06:00;-1.70;73.90
16118;DHT22;8163;50.118;5.342;2022-12-18T08:08:27;-1.70;73.70
16118;DHT22;8163;50.118;5.342;2022-12-18T08:10:54;-1.60;74.50
16118;DHT22;8163;50.118;5.342;2022-12-18T08:13:21;-1.50;74.40
16118;DHT22;8163;50.118;5.342;2022-12-18T08:15:57;-1.20;74.00
16118;DHT22;8163;50.118;5.342;2022-12-18T08:18:24;-0.60;74.90
16118;DHT22;8163;50.118;5.342;2022-12-18T08:20:51;-0.20;75.10
16118;DHT22;8163;50.118;5.342;2022-12-18T08:23:18;0.20;75.40
16118;DHT22;8163;50.118;5.342;2022-12-18T08:25:45;0.90;75.20
16118;DHT22;8163;50.118;5.342;2022-12-18T08:28:12;1.80;75.50
16118;DHT22;8163;50.118;5.342;2022-12-18T08:30:39;2.50;75.10
16118;DHT22;8163;50.118;5.342;2022-12-18T08:33:07;2.70;74.30
16118;DHT22;8163;50.118;5.342;2022-12-18T08:35:35;3.50;73.60
16118;DHT22;8163;50.118;5.342;2022-12-18T08:38:04;3.70;73.00
16118;DHT22;8163;50.118;5.342;2022-12-18T08:40:31;3.60;71.30
16118;DHT22;8163;50.118;5.342;2022-12-18T08:42:58;4.10;71.90
16118;DHT22;8163;50.118;5.342;2022-12-18T08:45:42;4.30;70.80
16118;DHT22;8163;50.118;5.342;2022-12-18T08:48:12;4.50;71.00
16118;DHT22;8163;50.118;5.342;2022-12-18T08:50:39;5.10;71.20
16118;DHT22;8163;50.118;5.342;2022-12-18T08:53:06;5.60;70.60
16118;DHT22;8163;50.118;5.342;2022-12-18T08:55:33;5.60;69.60
16118;DHT22;8163;50.118;5.342;2022-12-18T08:58:00;5.30;68.40
16118;DHT22;8163;50.118;5.342;2022-12-18T09:00:27;5.10;66.00
16118;DHT22;8163;50.118;5.342;2022-12-18T09:02:54;5.10;66.00
16118;DHT22;8163;50.118;5.342;2022-12-18T09:05:25;5.00;65.40
16118;DHT22;8163;50.118;5.342;2022-12-18T09:07:52;5.10;65.30
16118;DHT22;8163;50.118;5.342;2022-12-18T09:10:21;5.00;64.40
16118;DHT22;8163;50.118;5.342;2022-12-18T09:12:49;4.90;63.00
16118;DHT22;8163;50.118;5.342;2022-12-18T09:15:16;4.70;61.80
16118;DHT22;8163;50.118;5.342;2022-12-18T09:17:43;4.60;60.70
16118;DHT22;8163;50.118;5.342;2022-12-18T09:20:10;4.40;60.40
16118;DHT22;8163;50.118;5.342;2022-12-18T09:22:39;4.20;59.50
16118;DHT22;8163;50.118;5.342;2022-12-18T09:25:06;4.10;59.30
16118;DHT22;8163;50.118;5.342;2022-12-18T09:27:34;4.00;58.70
16118;DHT22;8163;50.118;5.342;2022-12-18T09:30:00;4.00;58.70
16118;DHT22;8163;50.118;5.342;2022-12-18T09:32:28;3.90;58.00
16118;DHT22;8163;50.118;5.342;2022-12-18T09:34:57;3.70;57.20
16118;DHT22;8163;50.118;5.342;2022-12-18T09:37:25;3.60;56.90
16118;DHT22;8163;50.118;5.342;2022-12-18T09:39:53;3.60;56.50
16118;DHT22;8163;50.118;5.342;2022-12-18T09:42:21;3.60;56.50
16118;DHT22;8163;50.118;5.342;2022-12-18T09:44:51;3.60;56.20
16118;DHT22;8163;50.118;5.342;2022-12-18T09:47:21;3.50;55.80
16118;DHT22;8163;50.118;5.342;2022-12-18T09:49:52;3.40;55.20
16118;DHT22;8163;50.118;5.342;2022-12-18T09:52:25;3.30;55.00
16118;DHT22;8163;50.118;5.342;2022-12-18T09:54:58;3.30;55.00
16118;DHT22;8163;50.118;5.342;2022-12-18T09:57:28;3.10;54.80
16118;DHT22;8163;50.118;5.342;2022-12-18T09:59:59;3.10;54.80
16118;DHT22;8163;50.118;5.342;2022-12-18T10:02:30;3.10;54.80
16118;DHT22;8163;50.118;5.342;2022-12-18T10:05:04;3.10;54.80
16118;DHT22;8163;50.118;5.342;2022-12-18T10:07:53;3.20;54.80
16118;DHT22;8163;50.118;5.342;2022-12-18T10:10:30;3.20;54.50
16118;DHT22;8163;50.118;5.342;2022-12-18T10:13:04;3.10;54.00
16118;DHT22;8163;50.118;5.342;2022-12-18T10:15:37;3.20;53.80
16118;DHT22;8163;50.118;5.342;2022-12-18T10:18:19;3.20;53.30
16118;DHT22;8163;50.118;5.342;2022-12-18T10:20:50;3.40;53.10
16118;DHT22;8163;50.118;5.342;2022-12-18T10:23:23;3.50;52.70
16118;DHT22;8163;50.118;5.342;2022-12-18T10:25:59;3.60;52.00
16118;DHT22;8163;50.118;5.342;2022-12-18T10:28:30;3.60;51.50
16118;DHT22;8163;50.118;5.342;2022-12-18T10:30:58;3.70;51.10
16118;DHT22;8163;50.118;5.342;2022-12-18T10:33:29;3.70;51.00
16118;DHT22;8163;50.118;5.342;2022-12-18T10:35:57;3.70;51.20
16118;DHT22;8163;50.118;5.342;2022-12-18T10:38:26;3.60;51.40
16118;DHT22;8163;50.118;5.342;2022-12-18T10:40:56;3.60;51.80
16118;DHT22;8163;50.118;5.342;2022-12-18T10:43:26;3.60;52.00
16118;DHT22;8163;50.118;5.342;2022-12-18T10:46:11;3.50;52.10
16118;DHT22;8163;50.118;5.342;2022-12-18T10:48:49;3.50;52.30
16118;DHT22;8163;50.118;5.342;2022-12-18T10:51:23;3.50;52.70
16118;DHT22;8163;50.118;5.342;2022-12-18T10:53:57;3.50;53.00
16118;DHT22;8163;50.118;5.342;2022-12-18T10:56:28;3.50;53.40
16118;DHT22;8163;50.118;5.342;2022-12-18T10:58:58;3.50;53.70
16118;DHT22;8163;50.118;5.342;2022-12-18T11:01:26;3.50;54.00
16118;DHT22;8163;50.118;5.342;2022-12-18T11:04:02;3.40;54.30
16118;DHT22;8163;50.118;5.342;2022-12-18T11:06:34;3.30;54.80
16118;DHT22;8163;50.118;5.342;2022-12-18T11:09:20;3.20;55.30
16118;DHT22;8163;50.118;5.342;2022-12-18T11:11:50;3.00;55.60
16118;DHT22;8163;50.118;5.342;2022-12-18T11:14:22;3.00;56.00
16118;DHT22;8163;50.118;5.342;2022-12-18T11:16:51;2.90;56.50
16118;DHT22;8163;50.118;5.342;2022-12-18T11:19:30;2.80;56.90
16118;DHT22;8163;50.118;5.342;2022-12-18T11:21:58;2.60;57.50
16118;DHT22;8163;50.118;5.342;2022-12-18T11:24:30;2.50;58.00
16118;DHT22;8163;50.118;5.342;2022-12-18T11:27:00;2.50;58.20
16118;DHT22;8163;50.118;5.342;2022-12-18T11:29:35;2.60;58.50
16118;DHT22;8163;50.118;5.342;2022-12-18T11:32:31;2.60;58.60
16118;DHT22;8163;50.118;5.342;2022-12-18T11:35:10;2.60;58.60
16118;DHT22;8163;50.118;5.342;2022-12-18T11:37:40;2.60;58.60
16118;DHT22;8163;50.118;5.342;2022-12-18T11:40:13;2.60;58.70
16118;DHT22;8163;50.118;5.342;2022-12-18T11:42:47;2.60;58.90
16118;DHT22;8163;50.118;5.342;2022-12-18T11:45:28;2.60;59.10
16118;DHT22;8163;50.118;5.342;2022-12-18T11:48:03;2.60;59.30
16118;DHT22;8163;50.118;5.342;2022-12-18T11:50:38;2.60;59.40
16118;DHT22;8163;50.118;5.342;2022-12-18T11:53:11;2.60;59.50
16118;DHT22;8163;50.118;5.342;2022-12-18T11:55:43;2.50;59.50
16118;DHT22;8163;50.118;5.342;2022-12-18T11:58:21;2.60;59.70
16118;DHT22;8163;50.118;5.342;2022-12-18T12:00:56;2.60;59.90
16118;DHT22;8163;50.118;5.342;2022-12-18T12:03:39;2.50;59.90
16118;DHT22;8163;50.118;5.342;2022-12-18T12:06:15;2.50;59.90
16118;DHT22;8163;50.118;5.342;2022-12-18T12:08:58;2.50;59.90
16118;DHT22;8163;50.118;5.342;2022-12-18T12:11:36;2.40;59.90
16118;DHT22;8163;50.118;5.342;2022-12-18T12:14:19;2.30;59.80
16118;DHT22;8163;50.118;5.342;2022-12-18T12:16:53;2.20;60.00
16118;DHT22;8163;50.118;5.342;2022-12-18T12:19:36;2.10;60.10
16118;DHT22;8163;50.118;5.342;2022-12-18T12:22:27;2.00;60.20
16118;DHT22;8163;50.118;5.342;2022-12-18T12:25:07;1.90;60.10
16118;DHT22;8163;50.118;5.342;2022-12-18T12:27:43;1.90;60.70
16118;DHT22;8163;50.118;5.342;2022-12-18T12:30:19;1.80;60.80
16118;DHT22;8163;50.118;5.342;2022-12-18T12:33:00;1.80;60.80
16118;DHT22;8163;50.118;5.342;2022-12-18T12:35:36;1.70;61.10
16118;DHT22;8163;50.118;5.342;2022-12-18T12:38:10;1.70;61.50
16118;DHT22;8163;50.118;5.342;2022-12-18T12:40:42;1.70;61.60
16118;DHT22;8163;50.118;5.342;2022-12-18T12:43:31;1.70;62.80
16118;DHT22;8163;50.118;5.342;2022-12-18T12:46:04;1.70;62.50
16118;DHT22;8163;50.118;5.342;2022-12-18T12:48:41;1.70;62.60
16118;DHT22;8163;50.118;5.342;2022-12-18T12:51:14;1.70;62.60
16118;DHT22;8163;50.118;5.342;2022-12-18T12:53:43;1.70;63.00
16118;DHT22;8163;50.118;5.342;2022-12-18T12:56:13;1.70;63.00
16118;DHT22;8163;50.118;5.342;2022-12-18T12:58:49;1.70;63.10
16118;DHT22;8163;50.118;5.342;2022-12-18T13:01:27;1.60;63.20
16118;DHT22;8163;50.118;5.342;2022-12-18T13:04:02;1.60;63.30
16118;DHT22;8163;50.118;5.342;2022-12-18T13:06:37;1.60;64.60
16118;DHT22;8163;50.118;5.342;2022-12-18T13:09:07;1.50;63.70
16118;DHT22;8163;50.118;5.342;2022-12-18T13:11:39;1.50;64.60
16118;DHT22;8163;50.118;5.342;2022-12-18T13:14:27;1.40;64.40
16118;DHT22;8163;50.118;5.342;2022-12-18T13:17:26;1.40;64.10
16118;DHT22;8163;50.118;5.342;2022-12-18T13:20:08;1.30;64.10
16118;DHT22;8163;50.118;5.342;2022-12-18T13:22:36;1.20;64.00
16118;DHT22;8163;50.118;5.342;2022-12-18T13:25:35;1.20;64.30
16118;DHT22;8163;50.118;5.342;2022-12-18T13:28:08;1.10;64.40
16118;DHT22;8163;50.118;5.342;2022-12-18T13:30:56;1.10;64.30
16118;DHT22;8163;50.118;5.342;2022-12-18T13:33:39;1.10;64.80
16118;DHT22;8163;50.118;5.342;2022-12-18T13:36:27;1.00;64.60
16118;DHT22;8163;50.118;5.342;2022-12-18T13:42:37;0.90;65.50
16118;DHT22;8163;50.118;5.342;2022-12-18T13:45:43;0.90;65.80
16118;DHT22;8163;50.118;5.342;2022-12-18T13:48:21;0.90;66.00
16118;DHT22;8163;50.118;5.342;2022-12-18T13:50:57;1.00;66.20
16118;DHT22;8163;50.118;5.342;2022-12-18T13:53:27;1.00;66.30
16118;DHT22;8163;50.118;5.342;2022-12-18T13:55:54;1.00;66.30
16118;DHT22;8163;50.118;5.342;2022-12-18T14:36:04;0.80;61.60
16118;DHT22;8163;50.118;5.342;2022-12-18T14:38:33;0.80;62.10
16118;DHT22;8163;50.118;5.342;2022-12-18T14:41:02;0.80;62.60
16118;DHT22;8163;50.118;5.342;2022-12-18T14:43:32;0.80;63.00
16118;DHT22;8163;50.118;5.342;2022-12-18T14:46:00;0.80;63.30
16118;DHT22;8163;50.118;5.342;2022-12-18T14:48:38;0.80;63.60
16118;DHT22;8163;50.118;5.342;2022-12-18T14:51:14;0.90;63.90
16118;DHT22;8163;50.118;5.342;2022-12-18T14:53:46;0.90;63.90
16118;DHT22;8163;50.118;5.342;2022-12-18T14:56:16;0.80;63.90
16118;DHT22;8163;50.118;5.342;2022-12-18T14:58:46;0.90;63.90
16118;DHT22;8163;50.118;5.342;2022-12-18T15:01:26;0.80;63.80
16118;DHT22;8163;50.118;5.342;2022-12-18T15:03:54;0.80;63.80
16118;DHT22;8163;50.118;5.342;2022-12-18T15:06:29;0.70;63.80
16118;DHT22;8163;50.118;5.342;2022-12-18T15:08:57;0.70;63.90
16118;DHT22;8163;50.118;5.342;2022-12-18T15:11:32;0.70;63.90
16118;DHT22;8163;50.118;5.342;2022-12-18T15:16:42;0.70;63.80
16118;DHT22;8163;50.118;5.342;2022-12-18T15:19:10;0.60;63.70
16118;DHT22;8163;50.118;5.342;2022-12-18T15:21:42;0.60;63.80
16118;DHT22;8163;50.118;5.342;2022-12-18T15:24:17;0.60;64.00
16118;DHT22;8163;50.118;5.342;2022-12-18T15:26:47;0.60;64.00
16118;DHT22;8163;50.118;5.342;2022-12-18T15:29:20;0.60;63.70
16118;DHT22;8163;50.118;5.342;2022-12-18T15:32:01;0.70;63.70
16118;DHT22;8163;50.118;5.342;2022-12-18T15:34:29;0.70;63.50
16118;DHT22;8163;50.118;5.342;2022-12-18T15:36:58;0.70;63.50
16118;DHT22;8163;50.118;5.342;2022-12-18T15:39:24;0.70;63.50
16118;DHT22;8163;50.118;5.342;2022-12-18T15:41:51;0.80;63.40
16118;DHT22;8163;50.118;5.342;2022-12-18T15:44:36;0.70;63.30
16118;DHT22;8163;50.118;5.342;2022-12-18T15:47:04;0.70;63.20
16118;DHT22;8163;50.118;5.342;2022-12-18T15:49:34;0.80;63.20
16118;DHT22;8163;50.118;5.342;2022-12-18T15:52:03;0.80;63.00
16118;DHT22;8163;50.118;5.342;2022-12-18T15:54:30;0.80;62.90
16118;DHT22;8163;50.118;5.342;2022-12-18T15:57:14;0.80;62.80
16118;DHT22;8163;50.118;5.342;2022-12-18T15:59:50;0.70;62.70
16118;DHT22;8163;50.118;5.342;2022-12-18T16:02:19;0.70;62.60
16118;DHT22;8163;50.118;5.342;2022-12-18T16:04:48;0.70;63.40
16118;DHT22;8163;50.118;5.342;2022-12-18T16:07:16;0.70;62.70
16118;DHT22;8163;50.118;5.342;2022-12-18T16:09:44;0.70;62.60
16118;DHT22;8163;50.118;5.342;2022-12-18T16:12:19;0.70;62.70
16118;DHT22;8163;50.118;5.342;2022-12-18T16:14:46;0.80;62.80
16118;DHT22;8163;50.118;5.342;2022-12-18T16:17:14;0.70;62.80
16118;DHT22;8163;50.118;5.342;2022-12-18T16:19:41;0.80;62.90
16118;DHT22;8163;50.118;5.342;2022-12-18T16:22:19;0.80;62.80
16118;DHT22;8163;50.118;5.342;2022-12-18T16:24:48;0.70;62.80
16118;DHT22;8163;50.118;5.342;2022-12-18T16:27:15;0.80;62.90
16118;DHT22;8163;50.118;5.342;2022-12-18T16:29:42;0.70;62.80
16118;DHT22;8163;50.118;5.342;2022-12-18T16:32:12;0.70;62.90
16118;DHT22;8163;50.118;5.342;2022-12-18T16:34:40;0.80;63.00
16118;DHT22;8163;50.118;5.342;2022-12-18T16:37:10;0.80;63.10
16118;DHT22;8163;50.118;5.342;2022-12-18T16:39:39;0.70;63.10
16118;DHT22;8163;50.118;5.342;2022-12-18T16:42:10;0.70;63.00
16118;DHT22;8163;50.118;5.342;2022-12-18T16:44:41;0.70;63.10
16118;DHT22;8163;50.118;5.342;2022-12-18T16:47:08;0.70;63.10
16118;DHT22;8163;50.118;5.342;2022-12-18T16:49:37;0.70;63.20
16118;DHT22;8163;50.118;5.342;2022-12-18T16:52:04;0.70;63.20
16118;DHT22;8163;50.118;5.342;2022-12-18T16:54:31;0.70;63.50
16118;DHT22;8163;50.118;5.342;2022-12-18T16:57:01;0.70;64.40
16118;DHT22;8163;50.118;5.342;2022-12-18T16:59:29;0.70;63.60